Time;durP1;ratioP1;P1;durP2;ratioP2;P2;SDS_P1;SDS_P2;PMS_P1;PMS_P2;Temp;Humidity;BMP_temperature;BMP_pressure;BME280_temperature;BME280_humidity;BME280_pressure;Samples;Min_cycle;Max_cycle;Signal;HPM_P1;HPM_P2
2022/12/07 00:01:13;;;;;;;21.58;14.60;;;;;;;5.08;63.56;100727.78;4785158;29;118928;-80
2022/12/07 00:03:41;;;;;;;25.70;18.55;;;;;;;5.03;63.70;100722.06;4734959;29;120697;-79
2022/12/07 00:06:09;;;;;;;28.05;17.50;;;;;;;5.00;63.91;100717.44;4760459;29;121184;-80
2022/12/07 00:08:36;;;;;;;26.50;17.05;;;;;;;5.00;64.19;100725.59;4767230;29;119781;-80
2022/12/07 00:11:03;;;;;;;25.40;16.50;;;;;;;4.96;64.10;100724.84;4748978;29;121070;-80
2022/12/07 00:13:29;;;;;;;25.15;16.27;;;;;;;4.94;64.43;100720.59;4764265;29;119228;-80
2022/12/07 00:15:55;;;;;;;25.27;18.58;;;;;;;5.05;64.51;100730.56;4778807;29;119196;-79
2022/12/07 00:18:21;;;;;;;28.48;17.00;;;;;;;5.13;64.91;100729.28;4764174;29;121012;-80
2022/12/07 00:20:46;;;;;;;35.00;19.60;;;;;;;5.18;65.03;100734.25;4769238;29;119425;-80
2022/12/07 00:23:12;;;;;;;27.95;18.33;;;;;;;5.20;65.10;100724.53;4783401;29;119808;-80
2022/12/07 00:25:38;;;;;;;24.17;18.15;;;;;;;5.20;64.91;100721.00;4769380;29;120443;-80
2022/12/07 00:28:04;;;;;;;24.58;18.83;;;;;;;5.27;64.85;100731.03;4753868;29;121430;-80
2022/12/07 00:30:30;;;;;;;25.65;20.02;;;;;;;5.27;64.54;100739.19;4765956;29;119457;-80
2022/12/07 00:32:55;;;;;;;25.33;18.85;;;;;;;5.24;64.70;100735.34;4752591;29;119965;-80
2022/12/07 00:35:21;;;;;;;23.40;17.75;;;;;;;5.19;64.42;100733.06;4765571;29;119572;-80
2022/12/07 00:37:47;;;;;;;22.88;17.42;;;;;;;5.16;64.30;100725.72;4768016;29;119569;-80
2022/12/07 00:40:12;;;;;;;21.42;16.92;;;;;;;5.17;64.47;100732.72;4751196;29;119688;-80
2022/12/07 00:42:38;;;;;;;25.90;16.55;;;;;;;5.14;64.83;100717.22;4783125;29;119780;-80
2022/12/07 00:45:04;;;;;;;30.13;20.55;;;;;;;5.11;64.78;100707.94;4763590;29;120799;-80
2022/12/07 00:47:30;;;;;;;25.13;16.83;;;;;;;5.15;64.58;100713.31;4773003;29;119846;-80
2022/12/07 00:49:56;;;;;;;27.38;20.20;;;;;;;5.17;64.62;100722.59;4782322;29;119200;-80
2022/12/07 00:52:21;;;;;;;25.92;19.75;;;;;;;5.19;64.90;100720.22;4765534;29;119702;-80
2022/12/07 00:54:47;;;;;;;25.65;20.50;;;;;;;5.21;65.25;100723.34;4777382;29;119426;-79
2022/12/07 00:57:13;;;;;;;23.75;18.70;;;;;;;5.29;65.51;100721.25;4756606;29;119804;-80
2022/12/07 00:59:38;;;;;;;21.58;18.65;;;;;;;5.34;65.50;100730.91;4760650;29;119237;-80
2022/12/07 01:02:04;;;;;;;22.85;18.20;;;;;;;5.41;65.45;100725.34;4755139;29;119328;-80
2022/12/07 01:04:33;;;;;;;22.42;16.67;;;;;;;5.39;65.44;100717.59;4759413;29;120973;-80
2022/12/07 01:06:58;;;;;;;19.77;16.15;;;;;;;5.37;64.97;100717.25;4767501;29;119231;-80
2022/12/07 01:09:24;;;;;;;22.88;16.58;;;;;;;5.49;65.12;100727.56;4764775;29;119897;-80
2022/12/07 01:11:50;;;;;;;21.50;16.45;;;;;;;5.46;65.07;100716.72;4758398;29;120048;-81
2022/12/07 01:14:15;;;;;;;21.33;17.00;;;;;;;5.48;64.75;100723.28;4765514;29;119152;-80
2022/12/07 01:16:41;;;;;;;20.60;16.30;;;;;;;5.51;64.07;100736.06;4760207;29;119349;-80
2022/12/07 01:19:07;;;;;;;21.05;15.80;;;;;;;5.45;64.04;100729.56;4780327;29;119338;-80
2022/12/07 01:21:35;;;;;;;19.95;15.88;;;;;;;5.44;64.42;100719.06;4749338;29;119563;-80
2022/12/07 01:24:02;;;;;;;19.42;15.48;;;;;;;5.39;64.55;100714.09;4749319;29;121328;-81
2022/12/07 01:26:27;;;;;;;22.38;16.73;;;;;;;5.39;64.25;100720.31;4794932;29;119826;-80
2022/12/07 01:28:54;;;;;;;23.73;16.45;;;;;;;5.33;63.78;100732.09;4769797;29;119170;-80
2022/12/07 01:31:23;;;;;;;20.60;15.75;;;;;;;5.29;63.87;100723.22;4782039;29;119986;-80
2022/12/07 01:33:52;;;;;;;20.45;15.93;;;;;;;5.26;63.86;100735.69;4783313;29;119937;-80
2022/12/07 01:36:23;;;;;;;22.88;17.20;;;;;;;5.20;63.65;100731.88;4757464;29;120358;-80
2022/12/07 01:38:52;;;;;;;21.42;17.00;;;;;;;5.15;63.96;100724.97;4776732;29;119477;-80
2022/12/07 01:41:18;;;;;;;22.00;16.63;;;;;;;5.09;63.64;100726.63;4737745;29;119990;-80
2022/12/07 01:44:12;;;;;;;22.52;16.80;;;;;;;5.09;63.80;100717.69;4767862;29;119796;-80
2022/12/07 01:46:38;;;;;;;26.38;15.70;;;;;;;5.05;63.95;100708.81;4755956;29;119505;-80
2022/12/07 01:49:13;;;;;;;23.67;14.55;;;;;;;4.98;64.20;100700.78;4776208;29;119618;-80
2022/12/07 01:51:42;;;;;;;26.02;16.10;;;;;;;5.00;64.40;100712.00;4784426;29;119693;-80
2022/12/07 01:54:09;;;;;;;21.20;15.18;;;;;;;4.95;63.91;100699.63;4762556;29;119716;-80
2022/12/07 01:56:37;;;;;;;22.13;16.90;;;;;;;4.97;64.20;100710.09;4773374;29;120449;-80
2022/12/07 01:59:03;;;;;;;23.60;17.00;;;;;;;4.98;64.23;100711.66;4776684;29;119545;-80
2022/12/07 02:01:29;;;;;;;24.50;18.13;;;;;;;4.96;64.35;100711.28;4745605;29;119903;-80
2022/12/07 02:03:55;;;;;;;23.85;17.80;;;;;;;4.85;64.21;100704.03;4770179;29;119383;-80
2022/12/07 02:06:24;;;;;;;25.35;17.80;;;;;;;4.92;64.44;100708.59;4753817;29;119356;-80
2022/12/07 02:08:50;;;;;;;26.27;16.98;;;;;;;4.85;64.24;100704.03;4764503;29;119977;-80
2022/12/07 02:11:16;;;;;;;24.45;16.00;;;;;;;4.86;64.19;100710.25;4759644;29;119238;-80
2022/12/07 02:13:44;;;;;;;26.88;18.88;;;;;;;4.81;64.17;100705.28;4777459;29;119570;-80
2022/12/07 02:16:22;;;;;;;23.95;16.95;;;;;;;4.86;64.17;100716.47;4771015;29;119271;-81
2022/12/07 02:19:25;;;;;;;26.77;18.95;;;;;;;4.82;64.16;100715.75;4783315;29;119542;-80
2022/12/07 02:22:23;;;;;;;25.02;18.02;;;;;;;4.78;64.44;100714.25;4766644;29;120302;-80
2022/12/07 02:25:10;;;;;;;27.50;18.02;;;;;;;4.79;64.37;100718.50;4789621;29;119919;-80
2022/12/07 02:27:46;;;;;;;27.60;18.48;;;;;;;4.77;64.60;100705.34;4755029;29;119806;-80
2022/12/07 02:30:26;;;;;;;30.55;18.88;;;;;;;4.75;64.73;100702.25;4779123;29;119931;-80
2022/12/07 02:32:59;;;;;;;30.10;19.88;;;;;;;4.81;64.61;100705.28;4763008;29;120716;-80
2022/12/07 02:35:44;;;;;;;28.30;21.15;;;;;;;4.80;64.75;100703.75;4767473;29;119782;-81
2022/12/07 02:38:48;;;;;;;27.50;18.05;;;;;;;4.82;64.82;100701.38;4763567;29;119285;-80
2022/12/07 02:41:22;;;;;;;28.20;18.23;;;;;;;4.80;64.89;100701.03;4771431;29;120456;-80
2022/12/07 02:43:53;;;;;;;26.95;18.08;;;;;;;4.77;64.93;100699.91;4775595;29;119447;-80
2022/12/07 02:46:33;;;;;;;26.98;18.50;;;;;;;4.80;64.83;100709.19;4762817;29;119188;-80
2022/12/07 02:48:59;;;;;;;25.30;16.85;;;;;;;4.77;64.87;100704.56;4749164;29;119678;-80
2022/12/07 02:51:26;;;;;;;26.13;16.63;;;;;;;4.80;64.69;100699.09;4761993;29;121421;-80
2022/12/07 02:53:51;;;;;;;26.73;19.20;;;;;;;4.81;64.93;100692.47;4771408;29;119294;-81
2022/12/07 02:56:42;;;;;;;24.90;18.90;;;;;;;4.79;64.46;100688.63;4775633;29;119137;-80
2022/12/07 02:59:14;;;;;;;26.75;19.00;;;;;;;4.77;64.50;100697.19;4764144;29;119675;-80
2022/12/07 03:02:13;;;;;;;25.17;17.33;;;;;;;4.75;64.54;100696.81;4765395;29;120652;-80
2022/12/07 03:05:01;;;;;;;29.38;19.98;;;;;;;4.76;64.33;100698.38;4764582;29;119861;-80
2022/12/07 03:07:26;;;;;;;27.92;18.02;;;;;;;4.73;64.69;100693.75;4768697;29;122193;-80
2022/12/07 03:10:32;;;;;;;25.70;17.13;;;;;;;4.70;64.87;100689.13;4762850;29;119875;-80
2022/12/07 03:13:22;;;;;;;28.20;18.00;;;;;;;4.70;64.64;100686.41;4754084;29;119658;-80
2022/12/07 03:16:18;;;;;;;27.50;17.77;;;;;;;4.73;64.87;100687.53;4766647;29;121156;-79
2022/12/07 03:19:05;;;;;;;27.20;18.05;;;;;;;4.70;65.00;100678.25;4766652;29;119299;-80
2022/12/07 03:21:37;;;;;;;29.95;17.90;;;;;;;4.71;64.76;100676.28;4763888;29;119604;-80
2022/12/07 03:24:07;;;;;;;30.95;17.45;;;;;;;4.72;64.72;100669.69;4760391;29;119270;-80
2022/12/07 03:26:41;;;;;;;28.60;19.63;;;;;;;4.74;65.08;100670.06;4764828;29;119580;-80
2022/12/07 03:29:33;;;;;;;26.52;18.52;;;;;;;4.78;64.97;100670.78;4752200;29;120914;-80
2022/12/07 03:32:12;;;;;;;27.80;17.83;;;;;;;4.76;65.05;100662.28;4729347;29;119485;-80
2022/12/07 03:34:53;;;;;;;26.30;16.92;;;;;;;4.78;64.82;100659.91;4763697;29;119606;-80
2022/12/07 03:37:34;;;;;;;24.98;16.20;;;;;;;4.78;64.80;100657.97;4772399;29;119706;-80
2022/12/07 03:40:22;;;;;;;26.02;16.63;;;;;;;4.72;64.86;100654.16;4739570;29;119187;-80
2022/12/07 03:42:49;;;;;;;26.25;16.30;;;;;;;4.72;65.09;100645.22;4752929;29;119418;-80
2022/12/07 03:45:16;;;;;;;25.98;16.67;;;;;;;4.75;64.65;100647.91;4783845;29;120012;-80
2022/12/07 03:48:09;;;;;;;27.20;17.45;;;;;;;4.77;64.74;100644.78;4754347;29;119706;-80
2022/12/07 03:50:50;;;;;;;27.00;17.33;;;;;;;4.73;64.57;100644.84;4768580;29;121382;-80
2022/12/07 03:53:26;;;;;;;24.83;17.75;;;;;;;4.76;64.63;100645.97;4787577;29;120837;-80
2022/12/07 03:55:53;;;;;;;26.80;16.48;;;;;;;4.68;65.17;100634.41;4746431;29;119620;-80
2022/12/07 03:58:22;;;;;;;23.98;16.77;;;;;;;4.75;64.63;100645.19;4751529;29;119648;-80
2022/12/07 04:00:49;;;;;;;24.60;17.67;;;;;;;4.67;64.67;100632.09;4772079;29;119246;-80
2022/12/07 04:03:15;;;;;;;24.13;17.35;;;;;;;4.67;64.66;100638.31;4772930;29;119102;-80
2022/12/07 04:05:42;;;;;;;22.83;17.00;;;;;;;4.65;64.21;100637.94;4762156;29;120185;-80
2022/12/07 04:08:08;;;;;;;22.75;16.77;;;;;;;4.62;64.62;100631.41;4765753;29;119703;-81
2022/12/07 04:10:33;;;;;;;22.58;16.92;;;;;;;4.68;64.58;100642.56;4760858;29;119904;-80
2022/12/07 04:12:59;;;;;;;23.95;15.65;;;;;;;4.58;65.22;100625.25;4762769;29;119243;-80
2022/12/07 04:15:25;;;;;;;24.85;15.38;;;;;;;4.70;64.98;100640.19;4770477;29;119663;-80
2022/12/07 04:17:51;;;;;;;23.17;15.98;;;;;;;4.74;65.52;100638.22;4768060;29;119449;-80
2022/12/07 04:20:17;;;;;;;24.02;17.90;;;;;;;4.75;64.97;100628.91;4771052;29;119406;-80
2022/12/07 04:22:42;;;;;;;25.15;15.98;;;;;;;4.72;64.99;100629.69;4771221;29;119276;-80
2022/12/07 04:25:08;;;;;;;23.52;16.70;;;;;;;4.82;64.77;100634.22;4772964;29;120092;-80
2022/12/07 04:27:34;;;;;;;21.33;15.98;;;;;;;4.82;65.16;100630.72;4749857;29;119722;-80
2022/12/07 04:30:00;;;;;;;23.08;16.95;;;;;;;4.83;64.92;100633.03;4766794;29;119483;-80
2022/12/07 04:32:26;;;;;;;23.75;16.40;;;;;;;4.84;64.96;100623.69;4772616;29;119833;-81
2022/12/07 04:34:52;;;;;;;20.73;15.57;;;;;;;4.75;64.83;100612.59;4770067;29;119273;-80
2022/12/07 04:37:17;;;;;;;20.38;15.38;;;;;;;4.82;64.67;100628.78;4764075;29;120706;-80
2022/12/07 04:39:44;;;;;;;22.25;14.88;;;;;;;4.78;64.98;100628.06;4765580;29;119287;-79
2022/12/07 04:42:12;;;;;;;22.58;14.73;;;;;;;4.80;65.13;100624.94;4756525;29;119362;-80
2022/12/07 04:44:39;;;;;;;24.17;13.77;;;;;;;4.79;64.65;100628.84;4752822;29;120443;-80
2022/12/07 04:47:04;;;;;;;22.17;14.82;;;;;;;4.84;65.01;100623.69;4783565;29;119110;-79
2022/12/07 04:49:30;;;;;;;23.85;13.30;;;;;;;4.79;65.38;100616.03;4784561;29;119197;-80
2022/12/07 04:51:56;;;;;;;20.35;14.75;;;;;;;4.90;65.16;100622.03;4783035;29;120599;-80
2022/12/07 04:54:22;;;;;;;18.95;13.65;;;;;;;4.92;65.72;100613.47;4771228;29;119593;-80
2022/12/07 04:56:48;;;;;;;21.15;14.00;;;;;;;4.92;66.08;100608.81;4769334;29;119207;-80
2022/12/07 04:59:16;;;;;;;18.85;13.23;;;;;;;4.94;66.08;100611.09;4765878;29;120004;-80
2022/12/07 05:01:43;;;;;;;24.80;14.20;;;;;;;5.05;66.62;100616.38;4754572;29;119717;-79
2022/12/07 05:04:09;;;;;;;22.85;12.48;;;;;;;5.14;66.50;100619.34;4747536;29;121646;-80
2022/12/07 05:06:35;;;;;;;19.05;11.70;;;;;;;5.20;66.78;100620.38;4777913;29;119975;-80
2022/12/07 05:09:02;;;;;;;20.92;13.23;;;;;;;5.29;66.72;100619.88;4780485;29;119267;-80
2022/12/07 05:11:40;;;;;;;19.10;12.32;;;;;;;5.35;66.60;100618.19;4760838;29;119463;-80
2022/12/07 05:14:10;;;;;;;20.98;12.90;;;;;;;5.39;66.29;100619.66;4771145;29;119212;-80
2022/12/07 05:16:37;;;;;;;18.23;11.70;;;;;;;5.40;66.31;100613.03;4783240;29;119832;-80
2022/12/07 05:19:03;;;;;;;18.92;11.88;;;;;;;5.40;65.99;100615.00;4755925;29;120124;-80
2022/12/07 05:21:29;;;;;;;18.02;11.38;;;;;;;5.46;66.11;100619.56;4762284;29;119480;-80
2022/12/07 05:23:55;;;;;;;16.75;11.65;;;;;;;5.38;65.58;100603.75;4765301;29;120589;-80
2022/12/07 05:26:20;;;;;;;20.77;12.23;;;;;;;5.34;65.41;100600.34;4768415;29;119228;-80
2022/12/07 05:28:51;;;;;;;21.75;11.60;;;;;;;5.44;64.99;100615.69;4750355;29;119562;-80
2022/12/07 05:31:16;;;;;;;18.52;11.57;;;;;;;5.40;65.58;100609.56;4764134;29;119275;-80
2022/12/07 05:33:42;;;;;;;18.23;11.32;;;;;;;5.44;65.46;100610.25;4779101;29;119279;-80
2022/12/07 05:36:08;;;;;;;18.42;10.73;;;;;;;5.40;65.94;100604.13;4779459;29;119648;-80
2022/12/07 05:38:34;;;;;;;16.13;10.48;;;;;;;5.43;65.45;100606.75;4749482;29;120690;-80
2022/12/07 05:41:05;;;;;;;16.48;10.68;;;;;;;5.51;65.41;100607.41;4772384;29;119394;-80
2022/12/07 05:43:32;;;;;;;18.02;11.20;;;;;;;5.50;65.31;100612.09;4756043;29;119772;-79
2022/12/07 05:45:58;;;;;;;20.17;11.25;;;;;;;5.46;64.81;100603.25;4768136;29;119470;-80
2022/12/07 05:48:24;;;;;;;17.10;10.63;;;;;;;5.45;64.93;100607.16;4779786;29;119758;-80
2022/12/07 05:50:52;;;;;;;23.70;10.73;;;;;;;5.43;64.73;100598.59;4774328;29;119990;-80
2022/12/07 05:53:18;;;;;;;18.05;10.75;;;;;;;5.31;64.72;100591.06;4764712;29;119530;-80
2022/12/07 05:55:44;;;;;;;24.33;12.27;;;;;;;5.34;64.34;100601.13;4770761;29;119630;-80
2022/12/07 06:00:55;;;;;;;19.30;11.20;;;;;;;5.28;64.50;100596.56;4749563;29;119832;-80
2022/12/07 06:03:21;;;;;;;17.65;10.27;;;;;;;5.30;64.20;100599.66;4779943;29;119411;-80
2022/12/07 06:05:47;;;;;;;18.98;9.38;;;;;;;5.23;64.27;100589.66;4754445;29;119642;-80
2022/12/07 06:08:14;;;;;;;17.42;9.77;;;;;;;5.16;64.18;100587.06;4771656;29;120487;-80
2022/12/07 06:10:40;;;;;;;15.43;9.95;;;;;;;5.12;64.66;100578.97;4776411;29;119810;-80
2022/12/07 06:13:06;;;;;;;17.50;9.23;;;;;;;5.18;64.49;100592.84;4764035;29;119806;-80
2022/12/07 06:15:31;;;;;;;15.02;9.40;;;;;;;5.17;64.23;100596.75;4766235;29;119371;-80
2022/12/07 06:17:57;;;;;;;19.60;9.40;;;;;;;5.11;64.29;100587.53;4766129;29;119929;-80
2022/12/07 06:20:23;;;;;;;15.30;8.50;;;;;;;5.07;64.31;100581.41;4758649;29;119726;-79
2022/12/07 06:22:49;;;;;;;19.90;8.30;;;;;;;5.03;64.68;100570.59;4779182;29;119631;-80
2022/12/07 06:25:14;;;;;;;14.38;7.93;;;;;;;5.14;64.48;100589.41;4793433;29;119009;-80
2022/12/07 06:27:40;;;;;;;12.57;7.22;;;;;;;5.12;64.62;100584.41;4752848;29;119631;-80
2022/12/07 06:30:08;;;;;;;15.23;7.43;;;;;;;5.11;64.66;100587.53;4763385;29;119646;-81
2022/12/07 06:32:34;;;;;;;14.95;6.97;;;;;;;5.03;64.90;100586.91;4777899;29;119927;-80
2022/12/07 06:35:00;;;;;;;14.15;6.63;;;;;;;5.13;64.58;100599.53;4751734;29;119313;-80
2022/12/07 06:37:25;;;;;;;18.17;7.45;;;;;;;5.10;64.76;100597.66;4781877;29;119183;-80
2022/12/07 06:39:51;;;;;;;32.40;11.13;;;;;;;5.11;64.26;100601.13;4784568;29;119455;-80
2022/12/07 06:42:17;;;;;;;77.70;23.17;;;;;;;5.07;64.27;100598.47;4722169;29;121105;-80
2022/12/07 06:44:43;;;;;;;34.28;11.45;;;;;;;5.08;63.86;100604.69;4755563;29;119444;-80
2022/12/07 06:47:09;;;;;;;36.00;12.43;;;;;;;4.95;63.81;100580.03;4754124;29;119482;-80
2022/12/07 06:49:35;;;;;;;21.40;7.95;;;;;;;5.02;63.93;100590.03;4766509;29;119784;-80
2022/12/07 06:52:00;;;;;;;22.25;8.35;;;;;;;4.92;64.01;100580.84;4785994;29;119909;-80
2022/12/07 06:54:27;;;;;;;28.98;9.98;;;;;;;5.00;63.76;100604.03;4777098;29;119457;-80
2022/12/07 06:56:53;;;;;;;21.38;7.70;;;;;;;4.97;63.67;100591.28;4754144;29;120632;-80
2022/12/07 06:59:18;;;;;;;23.85;7.93;;;;;;;5.00;63.74;100603.28;4774753;29;119439;-80
2022/12/07 07:01:44;;;;;;;55.22;16.00;;;;;;;4.89;63.56;100589.84;4771922;29;119236;-80
2022/12/07 07:04:10;;;;;;;51.17;16.05;;;;;;;4.94;63.39;100595.56;4766683;29;120732;-80
2022/12/07 07:06:35;;;;;;;40.75;13.48;;;;;;;4.90;63.45;100594.84;4770609;29;119547;-80
2022/12/07 07:09:01;;;;;;;52.58;13.70;;;;;;;4.84;63.30;100596.53;4767959;29;119592;-80
2022/12/07 07:11:27;;;;;;;48.75;12.95;;;;;;;4.92;63.23;100608.03;4767289;29;119103;-80
2022/12/07 07:13:53;;;;;;;33.17;8.10;;;;;;;4.92;63.26;100608.81;4752046;29;121520;-81
2022/12/07 07:16:19;;;;;;;38.65;11.20;;;;;;;4.70;62.97;100580.44;4781598;29;119947;-80
2022/12/07 07:18:45;;;;;;;31.63;7.97;;;;;;;4.92;62.87;100611.53;4767540;29;119347;-80
2022/12/07 07:21:10;;;;;;;39.53;11.57;;;;;;;4.88;62.45;100605.38;4752038;29;119637;-80
2022/12/07 07:23:36;;;;;;;44.22;11.32;;;;;;;4.91;62.76;100601.84;4766547;29;119191;-80
2022/12/07 07:26:02;;;;;;;44.42;10.20;;;;;;;4.93;62.53;100606.84;4757007;29;119138;-80
2022/12/07 07:28:28;;;;;;;54.95;12.50;;;;;;;4.90;62.58;100600.28;4784543;29;119126;-80
2022/12/07 07:30:54;;;;;;;56.63;15.77;;;;;;;4.91;62.47;100603.78;4767507;29;119410;-80
2022/12/07 07:33:20;;;;;;;43.70;11.77;;;;;;;4.87;62.23;100603.84;4736019;29;119633;-80
2022/12/07 07:35:45;;;;;;;29.67;7.68;;;;;;;4.92;62.16;100606.09;4767498;29;120174;-80
2022/12/07 07:38:11;;;;;;;32.33;8.55;;;;;;;4.99;62.23;100618.03;4776172;29;120214;-80
2022/12/07 07:40:37;;;;;;;27.02;7.07;;;;;;;4.97;62.26;100604.06;4762037;29;119571;-80
2022/12/07 07:43:03;;;;;;;22.17;6.32;;;;;;;4.96;61.83;100603.31;4749680;29;120914;-80
2022/12/07 07:45:28;;;;;;;22.25;5.65;;;;;;;5.03;61.59;100610.59;4788560;29;119625;-80
2022/12/07 07:47:54;;;;;;;34.80;8.98;;;;;;;5.05;61.69;100610.94;4767854;29;119298;-80
2022/12/07 07:50:22;;;;;;;40.35;11.52;;;;;;;5.06;61.68;100612.50;4768338;29;121504;-80
2022/12/07 07:52:47;;;;;;;28.02;8.20;;;;;;;5.04;61.87;100610.19;4777214;29;119209;-80
2022/12/07 07:55:14;;;;;;;20.23;5.50;;;;;;;5.13;61.82;100624.00;4726702;29;120190;-80
2022/12/07 07:57:41;;;;;;;13.02;3.72;;;;;;;5.04;61.76;100609.41;4766911;29;119331;-81
2022/12/07 08:00:10;;;;;;;14.00;3.65;;;;;;;5.18;61.89;100623.53;4773088;29;119651;-80
2022/12/07 08:02:39;;;;;;;12.40;3.10;;;;;;;5.21;61.82;100620.00;4753436;29;119809;-80
2022/12/07 08:05:06;;;;;;;13.30;2.95;;;;;;;5.13;61.93;100606.91;4769678;29;119978;-80
2022/12/07 08:07:32;;;;;;;21.10;4.88;;;;;;;5.28;61.79;100624.53;4772817;29;119516;-80
2022/12/07 08:09:57;;;;;;;14.52;4.28;;;;;;;5.34;61.59;100627.53;4750917;29;120273;-80
2022/12/07 08:12:23;;;;;;;13.57;3.97;;;;;;;5.27;61.60;100614.84;4779306;29;119597;-80
2022/12/07 08:14:49;;;;;;;18.30;7.70;;;;;;;5.31;61.37;100626.44;4750766;29;119502;-80
2022/12/07 08:17:15;;;;;;;77.57;40.85;;;;;;;5.39;61.45;100629.78;4774775;29;119419;-80
2022/12/07 08:19:41;;;;;;;19.58;7.15;;;;;;;5.39;61.54;100630.53;4774065;29;119263;-80
2022/12/07 08:22:06;;;;;;;10.60;4.10;;;;;;;5.45;61.42;100637.06;4748265;29;120010;-80
2022/12/07 08:24:36;;;;;;;9.70;3.15;;;;;;;5.50;61.81;100638.53;4777017;29;118994;-80
2022/12/07 08:27:03;;;;;;;10.15;2.47;;;;;;;5.51;61.64;100629.97;4753011;29;119627;-81
2022/12/07 08:29:29;;;;;;;11.55;2.85;;;;;;;5.48;61.54;100619.91;4769841;29;120399;-80
2022/12/07 08:31:55;;;;;;;9.70;2.40;;;;;;;5.59;61.17;100627.09;4753695;29;119256;-81
2022/12/07 08:34:20;;;;;;;8.98;2.67;;;;;;;5.60;61.33;100626.69;4794369;29;119589;-80
2022/12/07 08:36:46;;;;;;;7.47;2.28;;;;;;;5.65;61.61;100628.16;4783087;29;119196;-80
2022/12/07 08:39:12;;;;;;;10.18;3.38;;;;;;;5.67;60.96;100631.97;4765134;29;119221;-80
2022/12/07 08:41:38;;;;;;;16.13;3.78;;;;;;;5.67;61.13;100631.97;4764107;29;120127;-80
2022/12/07 08:44:04;;;;;;;14.65;3.22;;;;;;;5.74;61.15;100636.53;4768713;29;119047;-80
2022/12/07 08:46:38;;;;;;;9.75;3.08;;;;;;;5.78;60.99;100637.25;4765262;29;119384;-80
2022/12/07 08:49:26;;;;;;;;;;;;;;;5.79;60.66;100630.59;4772722;29;120247;-80
2022/12/07 08:51:52;;;;;;;10.02;3.72;;;;;;;5.81;60.55;100630.94;4777172;29;119478;-80
2022/12/07 08:54:19;;;;;;;12.25;5.68;;;;;;;5.86;60.00;100635.91;4744301;29;119596;-80
2022/12/07 08:56:47;;;;;;;14.05;6.78;;;;;;;5.89;60.43;100637.78;4778425;29;119812;-81
2022/12/07 08:59:15;;;;;;;16.67;8.20;;;;;;;5.95;60.19;100638.13;4775497;29;119268;-80
2022/12/07 09:01:41;;;;;;;15.68;7.07;;;;;;;5.95;59.52;100641.59;4758586;29;119541;-80
2022/12/07 09:04:07;;;;;;;21.10;10.57;;;;;;;5.80;59.66;100616.56;4764953;29;119475;-81
2022/12/07 09:06:33;;;;;;;17.52;9.13;;;;;;;5.98;59.83;100642.72;4742820;29;119436;-80
2022/12/07 09:09:01;;;;;;;14.25;6.00;;;;;;;6.06;59.85;100633.22;4775980;29;121285;-80
2022/12/07 09:11:27;;;;;;;17.33;7.38;;;;;;;6.10;59.60;100639.34;4765633;29;119510;-80
2022/12/07 09:13:53;;;;;;;10.55;4.32;;;;;;;6.12;59.30;100629.56;4767890;29;119144;-80
2022/12/07 09:16:18;;;;;;;6.03;2.78;;;;;;;6.03;58.97;100621.22;4781574;29;121856;-80
2022/12/07 09:18:44;;;;;;;7.43;2.67;;;;;;;6.15;59.20;100631.47;4776887;29;119896;-80
2022/12/07 09:21:10;;;;;;;8.38;2.45;;;;;;;6.15;59.03;100630.69;4760998;29;121849;-80
2022/12/07 09:23:36;;;;;;;6.47;2.38;;;;;;;6.23;58.63;100640.25;4748973;29;119398;-81
2022/12/07 09:26:04;;;;;;;6.85;2.13;;;;;;;6.29;59.18;100643.25;4750559;29;119280;-80
2022/12/07 09:28:31;;;;;;;7.78;2.40;;;;;;;6.26;59.06;100623.06;4734666;29;119593;-80
2022/12/07 09:30:57;;;;;;;10.82;2.90;;;;;;;6.30;58.52;100631.94;4766261;29;119733;-80
2022/12/07 09:33:22;;;;;;;6.38;1.70;;;;;;;6.38;59.04;100638.75;4765734;29;119804;-79
2022/12/07 09:35:50;;;;;;;5.43;2.63;;;;;;;6.42;58.49;100633.25;4764177;29;119657;-80
2022/12/07 09:38:17;;;;;;;6.88;2.20;;;;;;;6.45;58.43;100637.84;4753991;29;119310;-80
2022/12/07 09:40:43;;;;;;;6.95;2.00;;;;;;;6.47;58.38;100641.69;4770098;29;121193;-80
2022/12/07 09:43:20;;;;;;;9.82;3.13;;;;;;;6.52;58.37;100640.41;4763931;29;119694;-80
2022/12/07 09:45:48;;;;;;;9.82;2.83;;;;;;;6.49;58.09;100629.59;4761515;29;121025;-80
2022/12/07 09:48:20;;;;;;;9.35;3.50;;;;;;;6.57;58.08;100639.13;4779297;29;119640;-80
2022/12/07 09:50:48;;;;;;;7.22;2.58;;;;;;;6.58;58.25;100630.53;4782220;29;119836;-80
2022/12/07 09:53:36;;;;;;;7.72;2.38;;;;;;;6.63;57.98;100638.22;4776135;29;119396;-80
2022/12/07 09:56:02;;;;;;;7.82;3.53;;;;;;;6.60;57.43;100625.41;4769458;29;120613;-80
2022/12/07 09:58:31;;;;;;;8.18;2.75;;;;;;;6.62;57.40;100625.00;4754998;29;119522;-80
2022/12/07 10:00:59;;;;;;;10.43;3.80;;;;;;;6.69;57.71;100631.06;4749744;29;120176;-80
2022/12/07 10:03:28;;;;;;;9.05;3.60;;;;;;;6.56;57.91;100611.13;4751767;29;119833;-80
2022/12/07 10:05:54;;;;;;;12.43;4.75;;;;;;;6.78;57.12;100630.47;4765017;29;119804;-80
2022/12/07 10:08:20;;;;;;;10.25;3.03;;;;;;;6.82;57.49;100625.69;4763293;29;119899;-80
2022/12/07 10:10:51;;;;;;;6.25;2.30;;;;;;;6.87;56.81;100629.91;4766169;29;120425;-80
2022/12/07 10:13:35;;;;;;;7.05;2.13;;;;;;;6.90;56.19;100637.22;4769342;29;119560;-81
2022/12/07 10:16:01;;;;;;;6.38;2.30;;;;;;;6.68;56.36;100605.00;4756682;29;121958;-80
2022/12/07 10:18:30;;;;;;;6.43;2.00;;;;;;;6.92;55.80;100643.03;4785822;29;119508;-80
2022/12/07 10:21:09;;;;;;;6.32;1.50;;;;;;;6.74;55.18;100614.22;4786513;29;119628;-80
2022/12/07 10:23:41;;;;;;;3.83;1.20;;;;;;;6.92;55.60;100643.78;4752924;29;119922;-80
2022/12/07 10:26:27;;;;;;;5.82;1.83;;;;;;;6.99;55.40;100642.84;4767771;29;119574;-80
2022/12/07 10:28:54;;;;;;;5.65;1.80;;;;;;;7.01;55.72;100646.66;4751280;29;120633;-80
2022/12/07 10:31:22;;;;;;;6.68;1.45;;;;;;;7.06;55.77;100645.38;4756364;29;119926;-79
2022/12/07 10:33:50;;;;;;;5.35;1.35;;;;;;;7.11;55.65;100644.91;4783206;29;119284;-79
2022/12/07 10:36:23;;;;;;;3.17;1.00;;;;;;;7.12;55.35;100646.44;4763352;29;120790;-80
2022/12/07 10:39:02;;;;;;;5.35;1.65;;;;;;;7.11;55.16;100644.91;4790593;29;119836;-79
2022/12/07 10:41:29;;;;;;;13.77;4.80;;;;;;;7.06;54.39;100632.53;4772482;29;119536;-80
2022/12/07 10:43:57;;;;;;;22.35;6.82;;;;;;;7.08;54.53;100635.59;4799244;29;120056;-80
2022/12/07 10:46:41;;;;;;;16.23;4.45;;;;;;;7.13;54.36;100628.88;4775811;29;119289;-80
2022/12/07 10:49:07;;;;;;;16.23;4.10;;;;;;;7.13;54.75;100631.59;4759893;29;120440;-80
2022/12/07 10:51:33;;;;;;;16.63;4.43;;;;;;;7.17;54.50;100624.09;4746642;29;119552;-80
2022/12/07 10:54:16;;;;;;;15.75;4.07;;;;;;;7.20;54.63;100630.66;4782921;29;119248;-81
2022/12/07 10:57:18;;;;;;;12.50;3.50;;;;;;;7.21;55.17;100635.69;4787315;29;119211;-80
2022/12/07 10:59:57;;;;;;;14.13;4.32;;;;;;;7.24;54.88;100618.44;4778420;29;119548;-80
2022/12/07 11:02:35;;;;;;;17.67;5.60;;;;;;;7.24;54.70;100615.72;4766497;29;119206;-80
2022/12/07 11:05:04;;;;;;;25.70;6.68;;;;;;;7.24;54.50;100620.41;4776941;29;119886;-80
2022/12/07 11:07:30;;;;;;;12.30;3.38;;;;;;;7.23;54.35;100618.88;4795685;29;119616;-80
2022/12/07 11:10:03;;;;;;;13.50;4.07;;;;;;;7.22;54.63;100609.16;4772659;29;119667;-80
2022/12/07 11:12:48;;;;;;;24.37;7.03;;;;;;;7.20;54.69;100612.31;4771999;29;119600;-80
2022/12/07 11:15:22;;;;;;;13.05;3.67;;;;;;;7.17;54.43;100596.81;4767064;29;121496;-80
2022/12/07 11:18:11;;;;;;;28.48;6.88;;;;;;;7.28;54.57;100613.66;4771402;29;119656;-81
2022/12/07 11:20:51;;;;;;;9.45;3.13;;;;;;;7.29;54.41;100617.16;4768645;29;119375;-80
2022/12/07 11:23:39;;;;;;;19.67;5.53;;;;;;;7.28;54.50;100610.16;4760228;29;119789;-80
2022/12/07 11:26:18;;;;;;;24.48;6.47;;;;;;;7.24;54.64;100599.34;4767224;29;122400;-80
2022/12/07 11:29:02;;;;;;;13.70;4.68;;;;;;;7.28;54.34;100623.81;4752232;29;120187;-80